createdAt,value
2023-03-11T00:02:00.700Z,5.84
2023-03-11T00:07:10.414Z,5.83
2023-03-11T00:12:17.432Z,5.77
2023-03-11T00:17:25.706Z,5.70
2023-03-11T00:22:32.586Z,5.64
2023-03-11T00:27:39.415Z,5.65
2023-03-11T00:32:49.871Z,5.62
2023-03-11T00:37:58.968Z,5.56
2023-03-11T00:43:06.656Z,5.45
2023-03-11T00:48:17.700Z,5.33
2023-03-11T00:53:24.354Z,5.24
2023-03-11T00:58:31.133Z,5.20
2023-03-11T01:03:39.767Z,5.08
2023-03-11T01:08:46.555Z,5.04
2023-03-11T01:13:53.213Z,4.99
2023-03-11T01:19:02.614Z,4.97
2023-03-11T01:24:09.606Z,4.89
2023-03-11T01:29:18.186Z,4.83
2023-03-11T01:34:26.818Z,4.78
2023-03-11T01:39:33.548Z,4.71
2023-03-11T01:44:40.078Z,4.69
2023-03-11T01:49:50.701Z,4.62
2023-03-11T01:54:57.275Z,4.54
2023-03-11T02:00:09.491Z,4.50
2023-03-11T02:05:24.889Z,4.41
2023-03-11T02:10:32.982Z,4.38
2023-03-11T02:15:40.204Z,4.31
2023-03-11T02:20:56.438Z,4.25
2023-03-11T02:26:12.080Z,4.16
2023-03-11T02:31:21.194Z,4.10
2023-03-11T02:36:36.820Z,4.03
2023-03-11T02:41:47.709Z,4.00
2023-03-11T02:46:56.226Z,3.90
2023-03-11T02:52:02.889Z,3.89
2023-03-11T02:57:10.160Z,3.81
2023-03-11T03:02:18.157Z,3.86
2023-03-11T03:07:24.775Z,3.89
2023-03-11T03:12:31.213Z,3.90
2023-03-11T03:17:39.284Z,3.84
2023-03-11T03:22:47.247Z,3.83
2023-03-11T03:27:56.702Z,3.83
2023-03-11T03:33:07.298Z,3.81
2023-03-11T03:38:14.759Z,3.76
2023-03-11T03:43:22.167Z,3.77
2023-03-11T03:48:31.045Z,3.87
2023-03-11T03:53:39.077Z,3.92
2023-03-11T03:58:46.154Z,3.92
2023-03-11T04:03:54.571Z,3.91
2023-03-11T04:09:02.388Z,3.91
2023-03-11T04:14:12.233Z,3.88
2023-03-11T04:19:28.094Z,3.89
2023-03-11T04:24:35.358Z,3.89
2023-03-11T04:29:42.552Z,3.84
2023-03-11T04:34:51.172Z,3.84
2023-03-11T04:39:58.320Z,3.87
2023-03-11T04:45:05.491Z,3.95
2023-03-11T04:50:15.225Z,4.03
2023-03-11T04:55:22.273Z,4.14
2023-03-11T05:00:28.898Z,4.18
2023-03-11T05:05:46.206Z,4.28
2023-03-11T05:10:54.627Z,4.27
2023-03-11T05:16:02.786Z,4.21
2023-03-11T05:21:11.186Z,4.26
2023-03-11T05:26:18.407Z,4.29
2023-03-11T05:31:24.908Z,4.27
2023-03-11T05:36:33.084Z,4.25
2023-03-11T05:41:40.264Z,4.28
2023-03-11T05:46:46.825Z,4.33
2023-03-11T05:51:58.389Z,4.32
2023-03-11T05:57:06.391Z,4.35
2023-03-11T06:02:14.068Z,4.39
2023-03-11T06:07:23.024Z,4.46
2023-03-11T06:12:29.587Z,4.57
2023-03-11T06:17:49.925Z,4.67
2023-03-11T06:22:58.948Z,4.74
2023-03-11T06:28:07.085Z,4.80
2023-03-11T06:33:14.762Z,4.93
2023-03-11T06:38:23.192Z,4.97
2023-03-11T06:43:30.415Z,5.04
2023-03-11T06:48:38.403Z,5.09
2023-03-11T06:53:49.883Z,5.14
2023-03-11T06:58:57.148Z,5.18
2023-03-11T07:04:07.738Z,5.19
2023-03-11T07:09:19.447Z,5.20
2023-03-11T07:14:26.203Z,5.24
2023-03-11T07:19:36.237Z,5.28
2023-03-11T07:24:47.088Z,5.34
2023-03-11T07:29:54.150Z,5.37
2023-03-11T07:35:00.849Z,5.38
2023-03-11T07:40:11.315Z,5.41
2023-03-11T07:45:19.066Z,5.43
2023-03-11T07:50:25.985Z,5.41
2023-03-11T07:55:34.626Z,5.42
2023-03-11T08:00:41.125Z,5.38
2023-03-11T08:05:47.686Z,5.37
2023-03-11T08:10:55.594Z,5.35
2023-03-11T08:16:04.776Z,5.27
2023-03-11T08:21:15.165Z,5.25
2023-03-11T08:26:24.618Z,5.16
2023-03-11T08:31:32.640Z,5.00
2023-03-11T08:36:39.218Z,4.82
2023-03-11T08:41:47.998Z,4.59
2023-03-11T08:46:55.763Z,4.49
2023-03-11T08:52:04.298Z,4.37
2023-03-11T08:57:13.420Z,4.29
2023-03-11T09:02:20.814Z,4.19
2023-03-11T09:07:27.966Z,4.02
2023-03-11T09:12:36.546Z,3.88
2023-03-11T09:17:45.581Z,3.88
2023-03-11T09:22:52.473Z,3.74
2023-03-11T09:28:00.580Z,3.60
2023-03-11T09:33:07.288Z,3.60
2023-03-11T09:38:13.749Z,3.55
2023-03-11T09:43:45.003Z,3.46
2023-03-11T09:49:00.330Z,3.32
2023-03-11T09:54:12.434Z,3.27
2023-03-11T09:59:29.285Z,3.08
2023-03-11T10:04:43.796Z,3.06
2023-03-11T10:09:54.559Z,2.93
2023-03-11T10:15:26.526Z,2.88
2023-03-11T10:20:42.807Z,2.72
2023-03-11T10:26:04.910Z,2.81
2023-03-11T10:31:25.433Z,2.72
2023-03-11T10:36:41.555Z,2.68
2023-03-11T10:41:54.671Z,2.51
2023-03-11T10:47:03.398Z,2.49
2023-03-11T10:52:09.852Z,2.36
2023-03-11T10:57:27.086Z,2.39
2023-03-11T11:02:42.690Z,2.45
2023-03-11T11:07:55.065Z,2.33
2023-03-11T11:13:04.271Z,2.16
2023-03-11T11:18:22.806Z,2.08
2023-03-11T11:23:35.978Z,2.07
2023-03-11T11:28:42.609Z,2.04
2023-03-11T11:33:56.302Z,1.92
2023-03-11T11:39:05.484Z,1.88
2023-03-11T11:44:17.398Z,1.91
2023-03-11T11:49:30.649Z,1.85
2023-03-11T11:54:42.071Z,1.85
2023-03-11T11:59:50.047Z,1.78
2023-03-11T12:05:02.998Z,1.66
2023-03-11T12:10:29.524Z,1.59
2023-03-11T12:15:43.225Z,1.61
2023-03-11T12:20:57.523Z,1.50
2023-03-11T12:26:19.140Z,1.43
2023-03-11T12:31:31.293Z,1.38
2023-03-11T12:36:44.289Z,1.41
2023-03-11T12:42:25.654Z,1.32
2023-03-11T12:47:35.226Z,1.29
2023-03-11T12:52:56.736Z,1.48
2023-03-11T12:58:49.277Z,1.33
2023-03-11T13:04:46.877Z,1.30
2023-03-11T13:10:12.813Z,1.31
2023-03-11T13:15:39.303Z,1.30
2023-03-11T13:21:08.696Z,1.25
2023-03-11T13:26:42.714Z,1.15
2023-03-11T13:32:12.779Z,1.06
2023-03-11T13:37:32.946Z,1.01
2023-03-11T13:42:51.078Z,1.01
2023-03-11T13:48:08.928Z,0.92
2023-03-11T13:53:24.551Z,0.99
2023-03-11T13:58:33.322Z,1.01
2023-03-11T14:03:45.620Z,1.02
2023-03-11T14:08:59.966Z,1.02
2023-03-11T14:14:45.260Z,1.03
2023-03-11T14:20:10.350Z,1.07
2023-03-11T14:25:23.657Z,1.07
2023-03-11T14:30:35.069Z,1.06
2023-03-11T14:35:42.737Z,1.07
2023-03-11T14:40:56.496Z,1.03
2023-03-11T14:46:13.207Z,1.02
2023-03-11T14:51:27.768Z,1.05
2023-03-11T14:56:43.730Z,1.04
2023-03-11T15:01:54.260Z,1.07
2023-03-11T15:07:04.141Z,1.08
2023-03-11T15:12:35.051Z,1.06
2023-03-11T15:17:56.104Z,1.05
2023-03-11T15:23:06.382Z,1.01
2023-03-11T15:28:31.237Z,0.99
2023-03-11T15:33:41.063Z,0.98
2023-03-11T15:39:08.451Z,0.91
2023-03-11T15:44:32.813Z,0.89
2023-03-11T15:49:45.531Z,0.86
2023-03-11T15:54:56.011Z,0.78
2023-03-11T16:00:06.710Z,0.82
2023-03-11T16:05:24.157Z,0.79
2023-03-11T16:10:31.633Z,0.79
2023-03-11T16:15:41.020Z,0.76
2023-03-11T16:20:55.944Z,0.86
2023-03-11T16:26:08.891Z,0.79
2023-03-11T16:31:17.798Z,0.81
2023-03-11T16:36:31.012Z,0.83
2023-03-11T16:41:45.140Z,0.80
2023-03-11T16:46:54.841Z,0.76
2023-03-11T16:52:05.124Z,0.77
2023-03-11T16:57:14.514Z,0.70
2023-03-11T17:02:24.629Z,0.71
2023-03-11T17:07:34.776Z,0.69
2023-03-11T17:12:42.635Z,0.73
2023-03-11T17:17:55.617Z,0.71
2023-03-11T17:23:05.538Z,0.70
2023-03-11T17:28:14.610Z,0.63
2023-03-11T17:33:22.935Z,0.58
2023-03-11T17:38:33.218Z,0.56
2023-03-11T17:43:44.416Z,0.55
2023-03-11T17:48:54.951Z,0.53
2023-03-11T17:54:05.939Z,0.53
2023-03-11T17:59:17.910Z,0.48
2023-03-11T18:04:28.456Z,0.48
2023-03-11T18:09:39.078Z,0.43
2023-03-11T18:14:48.313Z,0.42
2023-03-11T18:19:59.418Z,0.38
2023-03-11T18:25:15.245Z,0.38
2023-03-11T18:30:24.166Z,0.35
2023-03-11T18:35:33.032Z,0.33
2023-03-11T18:40:43.471Z,0.31
2023-03-11T18:45:55.077Z,0.34
2023-03-11T18:51:03.221Z,0.30
2023-03-11T18:56:17.643Z,0.26
2023-03-11T19:01:29.927Z,0.24
2023-03-11T19:06:41.404Z,0.25
2023-03-11T19:11:51.337Z,0.18
2023-03-11T19:16:59.829Z,0.14
2023-03-11T19:22:09.756Z,0.12
2023-03-11T19:27:21.734Z,0.07
2023-03-11T19:32:31.531Z,0.00
2023-03-11T19:37:39.871Z,0.06
2023-03-11T19:42:51.103Z,-0.01
2023-03-11T19:48:01.934Z,-0.02
2023-03-11T19:53:11.300Z,-0.04
2023-03-11T19:58:21.979Z,-0.06
2023-03-11T20:03:33.221Z,-0.05
2023-03-11T20:08:47.125Z,-0.09
2023-03-11T20:14:02.749Z,-0.11
2023-03-11T20:19:14.509Z,-0.10
2023-03-11T20:24:25.437Z,-0.06
2023-03-11T20:29:36.863Z,-0.04
2023-03-11T20:34:45.806Z,-0.15
2023-03-11T20:39:57.774Z,-0.15
2023-03-11T20:45:12.428Z,-0.15
2023-03-11T20:50:27.037Z,-0.13
2023-03-11T20:55:37.230Z,-0.16
2023-03-11T21:01:03.338Z,-0.17
2023-03-11T21:06:24.991Z,-0.20
2023-03-11T21:11:36.242Z,-0.23
2023-03-11T21:16:46.957Z,-0.20
2023-03-11T21:21:56.376Z,-0.18
2023-03-11T21:27:10.886Z,-0.16
2023-03-11T21:32:21.151Z,-0.19
2023-03-11T21:37:30.055Z,-0.24
2023-03-11T21:42:37.229Z,-0.27
2023-03-11T21:47:45.974Z,-0.26
2023-03-11T21:52:53.432Z,-0.30
2023-03-11T21:58:00.274Z,-0.24
2023-03-11T22:03:08.983Z,-0.29
2023-03-11T22:08:16.352Z,-0.27
2023-03-11T22:13:23.322Z,-0.28
2023-03-11T22:18:31.981Z,-0.29
2023-03-11T22:23:39.141Z,-0.28
2023-03-11T22:28:46.543Z,-0.31
2023-03-11T22:33:55.113Z,-0.39
2023-03-11T22:39:04.755Z,-0.37
2023-03-11T22:44:11.503Z,-0.37
2023-03-11T22:49:20.465Z,-0.39
2023-03-11T22:54:27.063Z,-0.41
2023-03-11T22:59:33.842Z,-0.46
2023-03-11T23:04:45.357Z,-0.44
2023-03-11T23:09:51.937Z,-0.54
2023-03-11T23:14:58.882Z,-0.56
2023-03-11T23:20:10.707Z,-0.59
2023-03-11T23:25:19.892Z,-0.59
2023-03-11T23:30:27.342Z,-0.61
2023-03-11T23:35:35.815Z,-0.59
2023-03-11T23:40:43.388Z,-0.62
2023-03-11T23:45:50.684Z,-0.60
2023-03-11T23:50:59.395Z,-0.63
2023-03-11T23:56:13.011Z,-0.65
